sensor_id;sensor_type;location;lat;lon;timestamp;pressure;altitude;pressure_sealevel;temperature;humidity
47712;BME280;57457;51.634;5.886;2024-03-25T00:22:35;100500;;;5.6;87.4
47712;BME280;57457;51.634;5.886;2024-03-25T00:35:57;100500;;;5.4;87.6
47712;BME280;57457;51.634;5.886;2024-03-25T00:49:18;100500;;;5.2;87.7
47712;BME280;57457;51.634;5.886;2024-03-25T01:02:39;100500;;;5.0;87.9
47712;BME280;57457;51.634;5.886;2024-03-25T01:29:22;100500;;;4.7;88.6
47712;BME280;57457;51.634;5.886;2024-03-25T01:42:43;100500;;;4.6;88.7
47712;BME280;57457;51.634;5.886;2024-03-25T01:56:04;100500;;;4.5;88.7
47712;BME280;57457;51.634;5.886;2024-03-25T02:09:25;100600;;;4.4;88.8
47712;BME280;57457;51.634;5.886;2024-03-25T02:22:46;100600;;;4.3;89.1
47712;BME280;57457;51.634;5.886;2024-03-25T02:36:08;100600;;;4.4;89.2
47712;BME280;57457;51.634;5.886;2024-03-25T02:49:29;100600;;;4.5;89.1
47712;BME280;57457;51.634;5.886;2024-03-25T03:02:50;100600;;;4.7;88.9
47712;BME280;57457;51.634;5.886;2024-03-25T03:16:11;100600;;;4.8;88.5
47712;BME280;57457;51.634;5.886;2024-03-25T03:42:54;100500;;;4.8;88.6
47712;BME280;57457;51.634;5.886;2024-03-25T03:56:15;100500;;;4.8;88.5
47712;BME280;57457;51.634;5.886;2024-03-25T04:09:36;100500;;;4.8;88.3
47712;BME280;57457;51.634;5.886;2024-03-25T04:22:57;100500;;;4.6;88.3
47712;BME280;57457;51.634;5.886;2024-03-25T04:36:18;100500;;;4.5;88.2
47712;BME280;57457;51.634;5.886;2024-03-25T05:03:01;100500;;;4.0;88.5
47712;BME280;57457;51.634;5.886;2024-03-25T05:16:22;100500;;;3.7;88.7
47712;BME280;57457;51.634;5.886;2024-03-25T05:29:43;100500;;;3.5;89.0
47712;BME280;57457;51.634;5.886;2024-03-25T05:43:05;100500;;;3.3;89.1
47712;BME280;57457;51.634;5.886;2024-03-25T05:56:26;100600;;;3.2;89.3
47712;BME280;57457;51.634;5.886;2024-03-25T06:09:47;100600;;;3.1;89.5
47712;BME280;57457;51.634;5.886;2024-03-25T06:23:08;100600;;;3.0;89.7
47712;BME280;57457;51.634;5.886;2024-03-25T06:36:29;100600;;;3.1;89.9
47712;BME280;57457;51.634;5.886;2024-03-25T06:49:51;100600;;;3.2;90.2
47712;BME280;57457;51.634;5.886;2024-03-25T07:16:33;100600;;;3.7;90.6
47712;BME280;57457;51.634;5.886;2024-03-25T07:29:54;100600;;;4.0;90.7
47712;BME280;57457;51.634;5.886;2024-03-25T07:43:15;100600;;;4.4;90.8
47712;BME280;57457;51.634;5.886;2024-03-25T07:56:37;100600;;;4.8;90.8
47712;BME280;57457;51.634;5.886;2024-03-25T08:09:58;100600;;;5.3;90.8
47712;BME280;57457;51.634;5.886;2024-03-25T08:23:19;100600;;;5.8;90.9
47712;BME280;57457;51.634;5.886;2024-03-25T08:36:40;100600;;;6.3;90.7
47712;BME280;57457;51.634;5.886;2024-03-25T09:03:23;100600;;;7.4;88.9
47712;BME280;57457;51.634;5.886;2024-03-25T09:16:44;100600;;;8.1;86.5
47712;BME280;57457;51.634;5.886;2024-03-25T09:30:05;100500;;;8.9;83.6
47712;BME280;57457;51.634;5.886;2024-03-25T09:43:26;100500;;;9.5;82.7
47712;BME280;57457;51.634;5.886;2024-03-25T09:56:47;100500;;;10.0;82.6
47712;BME280;57457;51.634;5.886;2024-03-25T10:23:30;100400;;;10.9;79.9
47712;BME280;57457;51.634;5.886;2024-03-25T10:50:12;100400;;;11.5;77.1
47712;BME280;57457;51.634;5.886;2024-03-25T11:03:33;100400;;;11.7;74.9
47712;BME280;57457;51.634;5.886;2024-03-25T11:16:55;100400;;;12.1;74.5
47712;BME280;57457;51.634;5.886;2024-03-25T11:30:16;100400;;;12.5;70.5
47712;BME280;57457;51.634;5.886;2024-03-25T11:43:37;100400;;;12.8;73.5
47712;BME280;57457;51.634;5.886;2024-03-25T11:56:58;100300;;;13.1;71.2
47712;BME280;57457;51.634;5.886;2024-03-25T12:23:41;100300;;;13.7;63.6
47712;BME280;57457;51.634;5.886;2024-03-25T12:50:23;100300;;;13.9;63.5
47712;BME280;57457;51.634;5.886;2024-03-25T13:03:44;100200;;;14.0;65.0
47712;BME280;57457;51.634;5.886;2024-03-25T13:17:05;100200;;;14.2;61.3
47712;BME280;57457;51.634;5.886;2024-03-25T13:30:27;100200;;;14.4;57.2
47712;BME280;57457;51.634;5.886;2024-03-25T13:43:48;100200;;;14.7;58.4
47712;BME280;57457;51.634;5.886;2024-03-25T14:10:30;100100;;;15.4;54.3
47712;BME280;57457;51.634;5.886;2024-03-25T14:23:51;100100;;;15.8;54.2
47712;BME280;57457;51.634;5.886;2024-03-25T14:37:13;100100;;;16.5;49.2
47712;BME280;57457;51.634;5.886;2024-03-25T15:03:55;100100;;;18.0;45.4
47712;BME280;57457;51.634;5.886;2024-03-25T15:17:16;100000;;;18.5;46.6
47712;BME280;57457;51.634;5.886;2024-03-25T15:30:37;100000;;;18.8;44.5
47712;BME280;57457;51.634;5.886;2024-03-25T15:57:20;100000;;;18.9;47.5
47712;BME280;57457;51.634;5.886;2024-03-25T16:10:41;99900;;;18.6;47.3
47712;BME280;57457;51.634;5.886;2024-03-25T16:24:02;99900;;;18.2;48.5
47712;BME280;57457;51.634;5.886;2024-03-25T16:37:23;99900;;;17.7;51.1
47712;BME280;57457;51.634;5.886;2024-03-25T16:50:45;99900;;;17.0;52.4
47712;BME280;57457;51.634;5.886;2024-03-25T17:04:06;99900;;;16.1;54.4
47712;BME280;57457;51.634;5.886;2024-03-25T17:17:27;99900;;;15.1;57.6
47712;BME280;57457;51.634;5.886;2024-03-25T17:30:48;99900;;;14.1;60.1
47712;BME280;57457;51.634;5.886;2024-03-25T17:57:31;99800;;;12.0;63.7
47712;BME280;57457;51.634;5.886;2024-03-25T18:10:52;99800;;;11.2;65.3
47712;BME280;57457;51.634;5.886;2024-03-25T18:37:34;99800;;;9.8;68.6
47712;BME280;57457;51.634;5.886;2024-03-25T18:50:56;99800;;;9.3;69.3
47712;BME280;57457;51.634;5.886;2024-03-25T19:17:38;99800;;;8.4;72.2
47712;BME280;57457;51.634;5.886;2024-03-25T19:30:59;99800;;;7.9;73.5
47712;BME280;57457;51.634;5.886;2024-03-25T19:44:21;99800;;;7.5;74.9
47712;BME280;57457;51.634;5.886;2024-03-25T19:57:42;99800;;;7.2;76.3
47712;BME280;57457;51.634;5.886;2024-03-25T20:24:24;99700;;;6.8;77.9
47712;BME280;57457;51.634;5.886;2024-03-25T20:37:45;99700;;;6.6;78.3
47712;BME280;57457;51.634;5.886;2024-03-25T20:51:06;99700;;;6.5;79.0
47712;BME280;57457;51.634;5.886;2024-03-25T21:04:28;99700;;;6.3;79.9
47712;BME280;57457;51.634;5.886;2024-03-25T21:31:10;99700;;;6.3;79.6
47712;BME280;57457;51.634;5.886;2024-03-25T21:44:31;99700;;;6.3;79.8
47712;BME280;57457;51.634;5.886;2024-03-25T22:24:35;99700;;;6.3;80.6
47712;BME280;57457;51.634;5.886;2024-03-25T23:04:38;99600;;;6.1;81.4
47712;BME280;57457;51.634;5.886;2024-03-25T23:31:21;99600;;;6.2;81.0
47712;BME280;57457;51.634;5.886;2024-03-25T23:58:03;99600;;;6.2;80.9
